Time;durP1;ratioP1;P1;durP2;ratioP2;P2;SDS_P1;SDS_P2;PMS_P1;PMS_P2;Temp;Humidity;BMP_temperature;BMP_pressure;BME280_temperature;BME280_humidity;BME280_pressure;Samples;Min_cycle;Max_cycle;Signal;HPM_P1;HPM_P2
2022/12/05 00:01:20;;;;;;;7.35;4.65;;;12.80;99.90;;;;;;4957567;28;20077;-70
2022/12/05 00:03:51;;;;;;;10.43;5.00;;;12.80;99.90;;;;;;4970374;28;20504;-72
2022/12/05 00:06:19;;;;;;;11.82;5.32;;;12.80;99.90;;;;;;4975549;28;20051;-71
2022/12/05 00:08:48;;;;;;;14.80;3.95;;;12.80;99.90;;;;;;4994906;28;20057;-71
2022/12/05 00:11:19;;;;;;;10.25;3.65;;;12.80;99.90;;;;;;4968300;28;20125;-71
2022/12/05 00:13:48;;;;;;;8.40;4.57;;;12.80;99.90;;;;;;4969905;28;20061;-71
2022/12/05 00:16:18;;;;;;;11.63;4.80;;;12.80;99.90;;;;;;4970303;28;20193;-71
2022/12/05 00:18:46;;;;;;;8.68;4.55;;;12.80;99.90;;;;;;4952601;28;20121;-71
2022/12/05 00:21:17;;;;;;;12.10;4.65;;;12.80;99.90;;;;;;4968195;28;20736;-71
2022/12/05 00:23:45;;;;;;;10.60;5.47;;;12.80;99.90;;;;;;4970409;28;20050;-71
2022/12/05 00:26:13;;;;;;;12.85;4.55;;;12.80;99.90;;;;;;4952674;28;20066;-70
2022/12/05 00:28:40;;;;;;;9.27;4.43;;;12.80;99.90;;;;;;4968833;28;20508;-71
2022/12/05 00:31:12;;;;;;;13.38;4.95;;;12.80;99.90;;;;;;4952447;28;20055;-71
2022/12/05 00:33:40;;;;;;;8.63;4.22;;;12.80;99.90;;;;;;4970055;28;20126;-71
2022/12/05 00:36:14;;;;;;;9.90;4.47;;;12.80;99.90;;;;;;4968715;28;20064;-70
2022/12/05 00:38:42;;;;;;;9.68;4.75;;;12.80;99.90;;;;;;4953066;28;20084;-70
2022/12/05 00:41:13;;;;;;;6.70;4.57;;;12.80;99.90;;;;;;4984702;28;20046;-70
2022/12/05 00:43:41;;;;;;;10.38;5.45;;;12.80;99.90;;;;;;4968711;28;20413;-71
2022/12/05 00:46:11;;;;;;;6.53;3.17;;;12.80;99.90;;;;;;4984695;28;20047;-70
2022/12/05 00:48:39;;;;;;;7.03;4.78;;;12.70;99.90;;;;;;4952337;28;20354;-71
2022/12/05 00:51:18;;;;;;;11.18;4.68;;;12.80;99.90;;;;;;4953690;28;20059;-71
2022/12/05 00:53:46;;;;;;;10.15;4.40;;;12.70;99.90;;;;;;4973210;28;20130;-71
2022/12/05 00:56:17;;;;;;;12.57;4.68;;;12.80;99.90;;;;;;4972290;28;20043;-71
2022/12/05 00:58:44;;;;;;;6.55;3.70;;;12.80;99.90;;;;;;4973900;28;20061;-71
2022/12/05 01:01:18;;;;;;;9.02;4.68;;;12.70;99.90;;;;;;4971828;28;20146;-71
2022/12/05 01:03:46;;;;;;;8.68;5.20;;;12.70;99.90;;;;;;4972227;28;20378;-72
2022/12/05 01:06:15;;;;;;;6.90;3.63;;;12.70;99.90;;;;;;4972102;28;20469;-72
2022/12/05 01:08:42;;;;;;;10.00;4.22;;;12.70;99.90;;;;;;4971677;28;20488;-71
2022/12/05 01:11:13;;;;;;;7.90;4.03;;;12.70;99.90;;;;;;4971704;28;20797;-72
2022/12/05 01:13:41;;;;;;;13.20;4.75;;;12.70;99.90;;;;;;4987454;28;20050;-72
2022/12/05 01:16:23;;;;;;;15.25;6.38;;;12.70;99.90;;;;;;4971838;28;20042;-72
2022/12/05 01:18:52;;;;;;;15.85;6.10;;;12.70;99.90;;;;;;4972005;28;20046;-72
2022/12/05 01:21:20;;;;;;;14.05;6.97;;;12.70;99.90;;;;;;4972605;28;20039;-71
2022/12/05 01:23:48;;;;;;;11.43;5.75;;;12.70;99.90;;;;;;4967656;28;20576;-71
2022/12/05 01:26:18;;;;;;;10.40;5.45;;;12.70;99.90;;;;;;4951895;29;20051;-71
2022/12/05 01:28:47;;;;;;;10.73;6.70;;;12.60;99.90;;;;;;4951927;29;20078;-71
2022/12/05 01:31:30;;;;;;;18.05;9.70;;;12.70;99.90;;;;;;4935773;29;20051;-71
2022/12/05 01:33:59;;;;;;;11.35;6.50;;;12.70;99.90;;;;;;4949001;28;20055;-71
2022/12/05 01:36:28;;;;;;;14.65;7.35;;;12.60;99.90;;;;;;4967071;28;20171;-71
2022/12/05 01:38:57;;;;;;;20.40;4.40;;;12.70;99.90;;;;;;4967557;28;20082;-72
2022/12/05 01:41:33;;;;;;;11.15;5.32;;;12.60;99.90;;;;;;4969787;28;20069;-71
2022/12/05 01:44:01;;;;;;;10.55;4.18;;;12.60;99.90;;;;;;4970937;28;20050;-73
2022/12/05 01:46:31;;;;;;;8.80;4.32;;;12.60;99.90;;;;;;4970582;28;20069;-71
2022/12/05 01:49:10;;;;;;;8.20;4.88;;;12.60;99.90;;;;;;4985732;28;20047;-72
2022/12/05 01:51:41;;;;;;;7.20;5.00;;;12.60;99.90;;;;;;4970602;28;20051;-71
2022/12/05 01:54:10;;;;;;;7.72;4.38;;;12.60;99.90;;;;;;4969919;28;20050;-71
2022/12/05 01:56:39;;;;;;;9.90;5.78;;;12.60;99.90;;;;;;4954031;28;20105;-71
2022/12/05 01:59:10;;;;;;;11.30;5.60;;;12.60;99.90;;;;;;4954348;28;20067;-71
2022/12/05 02:01:38;;;;;;;9.45;4.63;;;12.60;99.90;;;;;;4954263;28;20418;-72
2022/12/05 02:04:07;;;;;;;10.43;4.88;;;12.50;99.90;;;;;;4971810;28;20113;-71
2022/12/05 02:06:34;;;;;;;9.50;4.95;;;12.50;99.90;;;;;;4986395;28;20051;-71
2022/12/05 02:09:03;;;;;;;9.65;5.78;;;12.60;99.90;;;;;;4970699;28;20050;-72
2022/12/05 02:11:32;;;;;;;8.40;4.93;;;12.60;99.90;;;;;;4971606;28;20047;-71
2022/12/05 02:14:21;;;;;;;10.32;5.95;;;12.60;99.90;;;;;;4986197;28;20122;-71
2022/12/05 02:17:16;;;;;;;7.90;4.50;;;12.60;99.90;;;;;;4970190;28;20075;-71
2022/12/05 02:20:01;;;;;;;5.95;3.42;;;12.60;99.90;;;;;;4970093;28;20042;-71
2022/12/05 02:22:53;;;;;;;14.75;5.90;;;12.60;99.90;;;;;;4966854;28;20038;-71
2022/12/05 02:25:36;;;;;;;9.98;4.97;;;12.60;99.90;;;;;;4950975;28;20086;-71
2022/12/05 02:28:21;;;;;;;12.70;5.60;;;12.50;99.90;;;;;;4951054;28;20061;-72
2022/12/05 02:31:04;;;;;;;9.02;5.22;;;12.50;99.90;;;;;;4934882;29;20039;-72
2022/12/05 02:33:35;;;;;;;10.23;4.30;;;12.50;99.90;;;;;;4957545;28;20584;-71
2022/12/05 02:36:10;;;;;;;8.30;4.13;;;12.50;99.90;;;;;;4970641;28;20054;-72
2022/12/05 02:38:49;;;;;;;10.13;5.70;;;12.50;99.90;;;;;;4970198;28;20466;-71
2022/12/05 02:41:33;;;;;;;8.57;4.78;;;12.50;99.90;;;;;;4970898;28;20054;-71
2022/12/05 02:44:05;;;;;;;9.20;3.75;;;12.50;99.90;;;;;;4969906;28;20134;-71
2022/12/05 02:46:36;;;;;;;18.65;5.80;;;12.50;99.90;;;;;;4986406;28;20046;-71
2022/12/05 02:49:09;;;;;;;5.90;3.47;;;12.50;99.90;;;;;;4985845;28;20118;-71
2022/12/05 02:51:45;;;;;;;9.07;4.82;;;12.50;99.90;;;;;;4969874;28;20137;-72
2022/12/05 02:54:18;;;;;;;12.70;6.03;;;12.40;99.90;;;;;;4953877;28;20050;-71
2022/12/05 02:56:47;;;;;;;8.85;4.88;;;12.50;99.90;;;;;;4953639;28;20093;-71
2022/12/05 02:59:15;;;;;;;8.82;4.38;;;12.40;99.90;;;;;;4970526;28;20050;-71
2022/12/05 03:01:48;;;;;;;7.65;3.50;;;12.40;99.90;;;;;;4970132;28;20086;-72
2022/12/05 03:04:17;;;;;;;7.97;3.67;;;12.40;99.90;;;;;;4970783;28;20358;-72
2022/12/05 03:07:08;;;;;;;7.22;4.47;;;12.40;99.90;;;;;;4969750;28;20504;-71
2022/12/05 03:09:42;;;;;;;10.80;4.50;;;12.40;99.90;;;;;;4970953;28;20515;-72
2022/12/05 03:12:27;;;;;;;11.57;4.93;;;12.50;99.90;;;;;;4971103;28;20406;-71
2022/12/05 03:15:13;;;;;;;6.40;3.53;;;12.50;99.90;;;;;;4984748;28;20396;-72
2022/12/05 03:17:47;;;;;;;7.32;3.53;;;12.40;99.90;;;;;;4968961;28;20150;-72
2022/12/05 03:20:24;;;;;;;6.90;4.18;;;12.50;99.90;;;;;;4953284;28;20169;-71
2022/12/05 03:23:29;;;;;;;7.15;3.78;;;12.50;99.90;;;;;;4954087;28;20488;-72
2022/12/05 03:26:13;;;;;;;5.78;4.15;;;12.50;99.90;;;;;;4962680;28;20483;-72
2022/12/05 03:29:08;;;;;;;9.15;3.92;;;12.40;99.90;;;;;;4918280;29;20051;-72
2022/12/05 03:32:18;;;;;;;8.02;4.53;;;12.40;99.90;;;;;;4918023;29;20502;-71
2022/12/05 03:35:05;;;;;;;8.82;4.15;;;12.40;99.90;;;;;;4963740;28;20101;-72
2022/12/05 03:37:38;;;;;;;8.48;3.67;;;12.30;99.90;;;;;;4949322;29;20058;-72
2022/12/05 03:40:38;;;;;;;9.02;4.22;;;12.30;99.90;;;;;;4948310;28;20059;-71
2022/12/05 03:43:30;;;;;;;6.22;3.22;;;12.30;99.90;;;;;;4948895;28;20211;-72
2022/12/05 03:46:11;;;;;;;5.88;3.00;;;12.30;99.90;;;;;;4970080;28;20497;-71
2022/12/05 03:49:23;;;;;;;4.90;3.00;;;12.20;99.90;;;;;;4952494;28;20082;-72
2022/12/05 03:52:05;;;;;;;7.07;2.63;;;12.20;99.90;;;;;;4963713;28;20612;-72
2022/12/05 03:54:44;;;;;;;5.28;3.03;;;12.10;99.90;;;;;;4968785;28;20364;-71
2022/12/05 03:57:42;;;;;;;4.53;2.55;;;12.00;99.90;;;;;;4984546;28;20047;-71
2022/12/05 04:00:17;;;;;;;6.45;3.10;;;12.00;99.90;;;;;;4967937;28;20589;-72
2022/12/05 04:03:01;;;;;;;3.70;2.60;;;12.00;99.90;;;;;;4952447;28;20508;-71
2022/12/05 04:05:48;;;;;;;5.85;3.40;;;11.90;99.90;;;;;;4933456;29;20150;-71
2022/12/05 04:08:28;;;;;;;5.20;3.33;;;11.90;99.90;;;;;;4949647;29;20043;-72
2022/12/05 04:11:00;;;;;;;4.70;2.70;;;11.90;99.90;;;;;;4949398;29;20740;-73
2022/12/05 04:13:53;;;;;;;3.67;2.75;;;11.90;99.90;;;;;;4967850;28;20031;-70
2022/12/05 04:22:25;;;;;;;7.82;4.63;;;11.70;99.90;;;;;;4984512;28;20050;-71
2022/12/05 04:27:51;;;;;;;5.03;3.53;;;11.80;99.90;;;;;;4973633;28;20060;-71
2022/12/05 04:30:32;;;;;;;4.80;2.90;;;11.80;99.90;;;;;;4972632;28;20131;-71
2022/12/05 04:33:14;;;;;;;3.38;2.70;;;11.90;99.90;;;;;;4972352;28;20131;-72
2022/12/05 04:36:02;;;;;;;10.55;4.72;;;11.90;99.90;;;;;;4953376;28;20150;-71
2022/12/05 04:38:42;;;;;;;5.03;2.92;;;12.00;99.90;;;;;;4952493;29;20158;-72
2022/12/05 04:41:35;;;;;;;6.78;3.40;;;12.10;99.90;;;;;;4936720;29;20600;-71
2022/12/05 04:44:07;;;;;;;8.60;4.53;;;12.10;99.90;;;;;;4960149;28;20049;-71
2022/12/05 04:46:37;;;;;;;4.85;3.22;;;12.10;99.90;;;;;;4956197;28;20520;-71
2022/12/05 04:49:08;;;;;;;5.28;3.42;;;12.10;99.90;;;;;;4987377;28;20054;-70
2022/12/05 04:51:37;;;;;;;6.20;3.08;;;12.10;99.90;;;;;;4972060;28;20050;-71
2022/12/05 04:54:31;;;;;;;7.60;4.10;;;12.10;99.90;;;;;;4971728;28;20047;-71
2022/12/05 04:57:08;;;;;;;6.88;3.97;;;12.10;99.90;;;;;;4955734;28;20138;-71
2022/12/05 04:59:36;;;;;;;6.15;2.90;;;12.10;99.90;;;;;;4971772;28;20094;-70
2022/12/05 05:02:09;;;;;;;7.28;3.42;;;12.20;99.90;;;;;;4972425;28;20811;-71
2022/12/05 05:04:49;;;;;;;6.03;3.05;;;12.20;99.90;;;;;;4969164;28;20055;-71
2022/12/05 05:07:18;;;;;;;9.40;3.88;;;12.20;99.90;;;;;;4971604;28;20066;-71
2022/12/05 05:09:46;;;;;;;5.47;2.40;;;12.20;99.90;;;;;;4955891;28;20077;-70
2022/12/05 05:12:14;;;;;;;4.40;2.70;;;12.20;99.90;;;;;;4971535;28;20078;-71
2022/12/05 05:14:44;;;;;;;7.82;2.38;;;12.20;99.90;;;;;;4952335;28;20055;-71
2022/12/05 05:17:12;;;;;;;7.15;3.38;;;12.10;99.90;;;;;;4951980;28;20109;-71
2022/12/05 05:19:39;;;;;;;6.13;3.08;;;12.10;99.90;;;;;;4953496;28;20051;-72
2022/12/05 05:22:07;;;;;;;5.47;2.78;;;12.10;99.90;;;;;;4951786;29;20081;-71
2022/12/05 05:24:34;;;;;;;6.38;2.72;;;12.10;99.90;;;;;;4947404;28;20054;-71
2022/12/05 05:27:02;;;;;;;4.15;2.53;;;12.10;99.90;;;;;;4954282;28;20059;-72
2022/12/05 05:29:29;;;;;;;4.65;2.92;;;12.20;99.90;;;;;;4938776;28;20153;-70
2022/12/05 05:31:57;;;;;;;7.10;3.40;;;12.20;99.90;;;;;;4954845;28;20074;-71
2022/12/05 05:34:27;;;;;;;6.68;2.70;;;12.20;99.90;;;;;;4971034;28;20137;-71
2022/12/05 05:36:55;;;;;;;4.07;2.40;;;12.20;99.90;;;;;;4970520;28;20042;-71
2022/12/05 05:39:22;;;;;;;12.30;3.58;;;12.20;99.90;;;;;;4970935;28;20058;-71
2022/12/05 05:41:50;;;;;;;5.10;2.92;;;12.20;99.90;;;;;;4953861;28;20516;-71
2022/12/05 05:44:17;;;;;;;7.53;3.38;;;12.10;99.90;;;;;;4944234;28;20109;-71
2022/12/05 05:46:45;;;;;;;5.45;3.33;;;12.10;99.90;;;;;;4954633;28;20113;-71
2022/12/05 05:49:12;;;;;;;7.93;3.92;;;12.00;99.90;;;;;;4953832;28;20074;-71
2022/12/05 05:51:40;;;;;;;7.93;5.57;;;12.00;99.90;;;;;;4955040;28;20042;-71
2022/12/05 05:54:08;;;;;;;7.82;4.88;;;12.10;99.90;;;;;;4942952;28;20124;-71
2022/12/05 05:56:38;;;;;;;8.18;4.50;;;12.00;99.90;;;;;;4954315;28;20144;-71
2022/12/05 05:59:06;;;;;;;8.73;6.15;;;12.10;99.90;;;;;;4938332;28;20117;-72
2022/12/05 06:01:33;;;;;;;11.77;5.80;;;12.10;99.90;;;;;;4971623;28;20121;-73
2022/12/05 06:04:01;;;;;;;12.38;6.68;;;12.10;99.90;;;;;;4954271;28;20047;-72
2022/12/05 06:06:28;;;;;;;8.68;4.45;;;12.10;99.90;;;;;;4971857;28;20061;-72
2022/12/05 06:08:56;;;;;;;12.20;8.38;;;12.20;99.90;;;;;;4970921;28;20069;-73
2022/12/05 06:11:25;;;;;;;8.25;5.78;;;12.20;99.90;;;;;;4970843;28;20245;-72
2022/12/05 06:13:59;;;;;;;8.98;4.97;;;12.20;99.90;;;;;;4954690;28;20923;-72
2022/12/05 06:16:29;;;;;;;5.30;3.15;;;12.40;99.90;;;;;;4970525;28;20390;-72
2022/12/05 06:18:57;;;;;;;25.23;14.75;;;12.60;99.90;;;;;;4971874;28;20409;-73
2022/12/05 06:21:26;;;;;;;12.65;8.85;;;12.90;99.90;;;;;;4954383;28;20146;-73
2022/12/05 06:23:54;;;;;;;10.23;5.32;;;13.20;99.90;;;;;;4954862;28;20047;-72
2022/12/05 06:26:22;;;;;;;8.57;4.53;;;13.60;99.90;;;;;;4971222;28;20050;-73
2022/12/05 06:28:50;;;;;;;11.65;5.03;;;14.20;99.90;;;;;;4970458;28;20043;-72
2022/12/05 06:31:21;;;;;;;9.45;3.92;;;14.70;99.90;;;;;;4985836;28;20122;-73
2022/12/05 06:33:49;;;;;;;9.18;4.75;;;15.20;99.90;;;;;;4950899;28;20050;-72
2022/12/05 06:36:19;;;;;;;7.50;4.20;;;15.70;99.90;;;;;;4950464;28;20043;-72
2022/12/05 06:38:47;;;;;;;5.30;3.53;;;16.30;99.90;;;;;;4950701;28;20047;-73
2022/12/05 06:41:16;;;;;;;5.88;3.50;;;16.90;99.90;;;;;;4934440;29;20138;-72
2022/12/05 06:43:45;;;;;;;5.45;3.38;;;17.40;99.90;;;;;;4954041;28;20042;-72
2022/12/05 06:46:14;;;;;;;5.90;3.88;;;17.90;99.90;;;;;;4953885;28;20138;-72
2022/12/05 06:48:42;;;;;;;53.25;13.57;;;18.40;99.90;;;;;;4952844;28;20150;-72
2022/12/05 06:51:11;;;;;;;139.70;28.73;;;19.00;99.90;;;;;;4953580;28;20141;-72
2022/12/05 06:53:40;;;;;;;34.67;10.77;;;19.50;99.90;;;;;;4969657;28;20133;-72
2022/12/05 06:56:11;;;;;;;8.45;4.85;;;20.00;99.90;;;;;;4953419;28;20046;-72
2022/12/05 06:58:43;;;;;;;10.80;5.10;;;20.50;99.90;;;;;;4969146;28;20059;-73
2022/12/05 07:01:40;;;;;;;13.07;5.50;;;20.90;99.90;;;;;;4969184;28;20059;-72
2022/12/05 07:04:14;;;;;;;;;;;21.40;99.90;;;;;;4969750;28;20047;-70
2022/12/05 07:06:44;;;;;;;19.23;7.95;;;22.00;99.90;;;;;;4953312;28;19969;-69
2022/12/05 07:09:16;;;;;;;7.68;5.03;;;22.50;99.90;;;;;;4970332;28;20086;-70
2022/12/05 07:11:50;;;;;;;7.40;4.32;;;22.70;99.90;;;;;;4968581;28;20051;-70
2022/12/05 07:14:18;;;;;;;4.90;3.20;;;23.00;99.90;;;;;;4954359;28;20425;-70
2022/12/05 07:17:05;;;;;;;5.70;3.05;;;23.50;99.90;;;;;;4963034;28;20129;-71
2022/12/05 07:19:33;;;;;;;8.40;4.18;;;24.00;99.90;;;;;;4933502;29;20056;-70
2022/12/05 07:22:00;;;;;;;8.80;4.35;;;24.30;99.90;;;;;;4952430;28;20101;-70
2022/12/05 07:24:28;;;;;;;8.05;2.63;;;24.80;99.90;;;;;;4970423;28;20615;-70
2022/12/05 07:26:55;;;;;;;6.63;2.80;;;24.90;99.90;;;;;;4968792;28;20133;-71
2022/12/05 07:29:23;;;;;;;7.00;2.83;;;24.80;99.90;;;;;;4968540;28;20137;-70
2022/12/05 07:31:52;;;;;;;6.00;2.97;;;24.80;99.90;;;;;;4953353;28;20057;-71
2022/12/05 07:34:20;;;;;;;6.50;3.08;;;24.70;99.90;;;;;;4952533;28;20054;-70
2022/12/05 07:36:48;;;;;;;7.22;2.30;;;24.50;99.90;;;;;;4967425;28;20141;-71
2022/12/05 07:39:16;;;;;;;7.50;3.83;;;24.30;99.90;;;;;;4962383;28;20035;-71
2022/12/05 07:41:43;;;;;;;2.88;1.77;;;24.00;99.90;;;;;;4990748;28;20788;-71
2022/12/05 07:44:15;;;;;;;4.93;2.03;;;23.30;99.90;;;;;;4965610;28;20046;-70
2022/12/05 07:46:43;;;;;;;8.85;3.28;;;22.90;99.90;;;;;;4985579;28;20618;-70
2022/12/05 07:49:10;;;;;;;4.22;2.60;;;22.70;99.90;;;;;;4976499;28;20046;-70
2022/12/05 07:51:38;;;;;;;5.20;2.15;;;22.40;99.90;;;;;;4976444;28;20046;-69
2022/12/05 07:54:06;;;;;;;5.60;2.33;;;21.90;99.90;;;;;;4970507;28;20108;-72
2022/12/05 07:56:33;;;;;;;4.97;1.75;;;21.60;99.90;;;;;;4979277;28;20505;-71
2022/12/05 07:59:01;;;;;;;2.20;1.40;;;21.10;99.90;;;;;;4965744;28;20114;-74
2022/12/05 08:01:29;;;;;;;3.97;1.85;;;20.80;99.90;;;;;;4980486;28;20065;-71
2022/12/05 08:03:58;;;;;;;4.55;2.10;;;20.40;99.90;;;;;;4964483;28;20039;-69
2022/12/05 08:06:28;;;;;;;4.07;1.98;;;20.20;99.90;;;;;;4980825;28;20047;-70
2022/12/05 08:08:57;;;;;;;6.38;2.05;;;19.70;99.90;;;;;;4977202;28;20077;-70
2022/12/05 08:11:30;;;;;;;5.32;2.35;;;19.50;99.90;;;;;;4964905;28;20070;-71
2022/12/05 08:13:58;;;;;;;3.40;2.03;;;19.60;99.90;;;;;;4960923;28;20437;-72
2022/12/05 08:16:28;;;;;;;5.03;2.75;;;19.60;99.90;;;;;;4978365;28;20047;-71
2022/12/05 08:18:58;;;;;;;6.30;2.22;;;19.10;99.90;;;;;;4964260;28;20457;-71
2022/12/05 08:21:26;;;;;;;4.32;1.92;;;19.10;99.90;;;;;;4970396;28;20105;-71
2022/12/05 08:23:54;;;;;;;7.45;2.58;;;18.80;99.90;;;;;;4965919;28;20164;-70
2022/12/05 08:26:27;;;;;;;5.90;2.15;;;18.80;99.90;;;;;;4981650;28;20050;-70
2022/12/05 08:29:01;;;;;;;4.32;2.25;;;19.00;99.90;;;;;;4980940;28;20104;-71
2022/12/05 08:31:30;;;;;;;9.10;2.70;;;19.00;99.90;;;;;;4973745;28;20047;-70
2022/12/05 08:33:59;;;;;;;9.48;3.25;;;18.80;99.90;;;;;;4975957;28;20113;-71
2022/12/05 08:36:28;;;;;;;3.60;1.95;;;18.60;99.90;;;;;;4976967;28;20575;-70
2022/12/05 08:39:00;;;;;;;5.50;1.80;;;18.50;99.90;;;;;;4975969;28;20408;-71
2022/12/05 08:41:29;;;;;;;6.18;1.90;;;18.50;99.90;;;;;;4987373;28;20080;-70
2022/12/05 08:44:04;;;;;;;4.13;1.88;;;18.50;99.90;;;;;;4983917;28;20101;-72
2022/12/05 08:46:34;;;;;;;3.13;1.92;;;18.40;99.90;;;;;;4952470;28;20490;-71
2022/12/05 08:49:03;;;;;;;5.35;2.10;;;18.40;99.90;;;;;;4967972;28;20054;-75
2022/12/05 08:51:31;;;;;;;5.13;2.30;;;18.50;99.90;;;;;;4969421;28;20042;-71
2022/12/05 08:54:00;;;;;;;4.32;2.40;;;18.50;99.90;;;;;;4986992;28;20489;-70
2022/12/05 08:56:28;;;;;;;4.03;2.40;;;18.30;99.90;;;;;;4968073;28;20046;-70
2022/12/05 08:58:56;;;;;;;5.13;2.03;;;18.20;99.90;;;;;;4968293;28;20349;-72
2022/12/05 09:01:30;;;;;;;4.40;1.90;;;18.20;99.90;;;;;;4968156;28;20051;-70
2022/12/05 09:03:59;;;;;;;3.75;2.30;;;18.10;99.90;;;;;;4968003;28;20045;-70
2022/12/05 09:06:28;;;;;;;5.57;1.90;;;18.20;99.90;;;;;;4973091;28;20776;-70
2022/12/05 09:08:58;;;;;;;3.65;2.15;;;18.60;99.90;;;;;;4951157;28;20050;-71
2022/12/05 09:11:28;;;;;;;7.82;2.85;;;18.70;99.90;;;;;;4954877;28;20509;-71
2022/12/05 09:13:57;;;;;;;4.40;2.13;;;18.70;99.90;;;;;;4963709;28;20047;-69
2022/12/05 09:16:28;;;;;;;3.50;1.95;;;18.60;99.90;;;;;;4970364;28;20592;-70
2022/12/05 09:18:59;;;;;;;5.95;2.25;;;18.50;99.90;;;;;;4968612;28;20059;-71
2022/12/05 09:21:29;;;;;;;3.20;1.77;;;18.40;99.90;;;;;;4970727;28;20470;-73
2022/12/05 09:23:58;;;;;;;4.00;2.13;;;18.20;99.90;;;;;;4938580;28;20070;-71
2022/12/05 09:26:27;;;;;;;4.93;2.08;;;18.10;99.90;;;;;;4980883;28;20047;-71
2022/12/05 09:28:56;;;;;;;4.15;1.88;;;18.00;99.90;;;;;;4970575;28;20059;-72
2022/12/05 09:31:29;;;;;;;10.43;3.50;;;18.00;99.90;;;;;;4986206;28;20575;-72
2022/12/05 09:33:57;;;;;;;5.38;2.17;;;18.30;99.90;;;;;;4971694;28;20471;-72
2022/12/05 09:36:28;;;;;;;5.88;2.17;;;18.50;99.90;;;;;;4954308;28;20408;-71
2022/12/05 09:38:59;;;;;;;3.75;1.92;;;18.70;99.90;;;;;;4970679;28;20070;-71
2022/12/05 09:42:04;;;;;;;12.57;2.80;;;18.60;99.90;;;;;;4963765;28;20071;-71
2022/12/05 09:44:48;;;;;;;4.07;1.80;;;18.70;99.90;;;;;;4963170;28;20047;-71
2022/12/05 09:47:41;;;;;;;4.95;2.10;;;19.10;99.90;;;;;;4970264;28;20517;-71
2022/12/05 09:50:28;;;;;;;4.90;2.45;;;19.30;99.90;;;;;;4976980;28;20058;-72
2022/12/05 09:53:01;;;;;;;4.53;2.03;;;19.40;99.90;;;;;;4971952;28;20560;-71
2022/12/05 09:55:59;;;;;;;3.97;1.90;;;19.30;99.90;;;;;;4970645;28;20385;-71
2022/12/05 09:58:42;;;;;;;3.55;1.90;;;19.30;99.90;;;;;;4971614;28;20137;-71
2022/12/05 10:01:42;;;;;;;3.20;2.00;;;19.20;99.90;;;;;;4971553;28;20057;-72
2022/12/05 10:04:28;;;;;;;5.97;1.70;;;19.20;99.90;;;;;;4953789;28;20397;-71
2022/12/05 10:07:27;;;;;;;2.35;1.80;;;19.30;99.90;;;;;;4969763;28;20496;-72
2022/12/05 10:10:07;;;;;;;5.60;2.72;;;19.50;99.90;;;;;;4952780;28;20120;-72
2022/12/05 10:12:46;;;;;;;3.17;2.00;;;19.30;99.90;;;;;;4951008;29;20102;-71
2022/12/05 10:15:38;;;;;;;4.65;2.33;;;19.50;99.90;;;;;;4963290;28;20050;-73
2022/12/05 10:18:21;;;;;;;2.83;1.65;;;19.30;99.90;;;;;;4970071;28;20053;-71
2022/12/05 10:21:18;;;;;;;4.63;2.95;;;18.80;99.90;;;;;;4970003;28;20039;-71
2022/12/05 10:23:57;;;;;;;12.43;4.03;;;18.50;99.90;;;;;;4949548;28;20182;-71
2022/12/05 10:26:45;;;;;;;8.63;3.20;;;18.30;99.90;;;;;;4932998;28;20058;-71
2022/12/05 10:29:37;;;;;;;8.82;2.47;;;18.00;99.90;;;;;;4967562;28;20035;-71
2022/12/05 10:32:22;;;;;;;5.15;2.40;;;18.00;99.90;;;;;;4965568;28;20043;-72
2022/12/05 10:34:58;;;;;;;4.45;2.45;;;18.00;99.90;;;;;;4969662;28;20114;-71
2022/12/05 10:37:29;;;;;;;4.25;2.15;;;18.00;99.90;;;;;;4963462;28;20059;-73
2022/12/05 10:39:57;;;;;;;6.53;2.45;;;18.10;99.90;;;;;;4953604;28;20130;-71
2022/12/05 10:42:30;;;;;;;6.65;2.65;;;18.20;99.90;;;;;;4953584;28;20057;-72
2022/12/05 10:45:02;;;;;;;4.03;2.75;;;18.30;99.90;;;;;;4967718;28;20137;-71
2022/12/05 10:47:31;;;;;;;3.47;2.05;;;18.50;99.90;;;;;;4968862;28;20121;-72
2022/12/05 10:50:06;;;;;;;5.70;2.17;;;18.80;99.90;;;;;;4968660;28;20480;-71
2022/12/05 10:52:34;;;;;;;5.03;1.83;;;19.20;99.90;;;;;;4967060;28;20043;-72
2022/12/05 10:55:05;;;;;;;3.83;1.98;;;19.60;99.90;;;;;;4970054;28;20054;-73
2022/12/05 10:57:33;;;;;;;5.72;2.63;;;20.00;99.90;;;;;;4970040;28;20758;-71
2022/12/05 11:00:14;;;;;;;4.30;2.20;;;20.40;99.90;;;;;;4951896;28;20047;-71
2022/12/05 11:02:42;;;;;;;6.10;1.95;;;20.50;99.90;;;;;;4963046;28;20050;-71
2022/12/05 11:05:10;;;;;;;5.30;1.92;;;20.00;99.90;;;;;;4950519;28;20402;-71
2022/12/05 11:07:48;;;;;;;4.47;2.30;;;19.30;99.90;;;;;;4951825;28;20053;-73
2022/12/05 11:10:22;;;;;;;3.75;2.00;;;18.90;99.90;;;;;;4936616;28;20519;-72
2022/12/05 11:12:57;;;;;;;3.42;2.15;;;18.60;99.90;;;;;;4969082;28;20039;-72
2022/12/05 11:15:28;;;;;;;5.97;3.53;;;18.40;99.90;;;;;;4952654;28;20101;-71
2022/12/05 11:17:59;;;;;;;6.32;2.20;;;18.40;99.90;;;;;;4970038;28;20062;-72
2022/12/05 11:20:27;;;;;;;6.20;2.65;;;18.40;99.90;;;;;;4950851;28;20463;-70
2022/12/05 11:22:55;;;;;;;4.25;2.58;;;18.40;99.90;;;;;;4951212;28;20124;-73
2022/12/05 11:25:34;;;;;;;4.07;2.00;;;18.40;99.90;;;;;;4966599;28;20051;-70
2022/12/05 11:28:17;;;;;;;3.92;2.03;;;18.50;99.90;;;;;;4962164;28;20221;-73
2022/12/05 11:31:19;;;;;;;6.75;2.78;;;18.40;99.90;;;;;;4957632;28;20051;-70
2022/12/05 11:34:16;;;;;;;4.20;2.55;;;18.60;99.90;;;;;;4969343;28;20046;-71
2022/12/05 11:36:50;;;;;;;3.28;1.75;;;19.00;99.90;;;;;;4942381;28;20559;-70
2022/12/05 11:39:17;;;;;;;3.72;1.92;;;19.30;99.90;;;;;;4951625;28;20067;-72
2022/12/05 11:42:13;;;;;;;4.32;1.63;;;19.50;99.90;;;;;;4968731;28;20126;-70
2022/12/05 11:45:01;;;;;;;4.85;2.05;;;19.40;99.90;;;;;;4968658;28;20050;-69
2022/12/05 11:47:35;;;;;;;7.10;3.42;;;19.10;99.90;;;;;;4949292;28;20114;-71
2022/12/05 11:50:12;;;;;;;4.25;2.13;;;19.10;99.90;;;;;;4965810;28;20046;-71
2022/12/05 11:53:17;;;;;;;4.65;2.13;;;19.00;99.90;;;;;;4968751;28;20043;-71
2022/12/05 11:56:01;;;;;;;2.42;1.70;;;19.10;99.90;;;;;;4967573;28;20055;-72
2022/12/05 11:58:51;;;;;;;3.20;1.80;;;19.20;99.90;;;;;;4957553;28;20042;-70
2022/12/05 12:01:43;;;;;;;3.00;1.80;;;19.30;99.90;;;;;;4968383;28;20054;-71
2022/12/05 12:04:41;;;;;;;3.13;1.50;;;19.50;99.90;;;;;;4968833;28;20047;-71
2022/12/05 12:07:20;;;;;;;3.22;1.40;;;19.80;99.90;;;;;;4945967;28;20047;-70
2022/12/05 12:10:03;;;;;;;2.92;1.63;;;20.00;99.90;;;;;;4920333;29;20071;-75
2022/12/05 12:13:03;;;;;;;5.15;1.75;;;20.00;99.90;;;;;;4964681;28;20626;-71
2022/12/05 12:15:37;;;;;;;2.92;1.85;;;20.20;99.90;;;;;;4956051;28;20047;-72
2022/12/05 12:18:07;;;;;;;2.42;1.33;;;20.20;99.90;;;;;;4970621;28;20044;-70
2022/12/05 12:20:45;;;;;;;3.35;1.75;;;20.20;99.90;;;;;;4969009;28;20047;-70
2022/12/05 12:23:34;;;;;;;5.38;2.17;;;20.00;99.90;;;;;;4950470;28;20047;-72
2022/12/05 12:26:18;;;;;;;3.33;1.92;;;20.00;99.90;;;;;;4966321;28;20087;-72
2022/12/05 12:28:49;;;;;;;2.63;1.83;;;20.10;99.90;;;;;;4971811;28;20053;-70
2022/12/05 12:31:35;;;;;;;6.22;2.20;;;20.10;99.90;;;;;;4932407;28;20051;-70
2022/12/05 12:34:09;;;;;;;2.63;1.17;;;20.10;99.90;;;;;;4967950;28;20449;-71
2022/12/05 12:36:52;;;;;;;4.97;1.90;;;20.00;99.90;;;;;;4961794;28;20238;-71
2022/12/05 12:39:20;;;;;;;3.67;1.75;;;19.90;99.90;;;;;;4966078;28;20047;-71
2022/12/05 12:42:00;;;;;;;6.70;2.28;;;19.80;99.90;;;;;;4966924;28;20047;-72
2022/12/05 12:44:52;;;;;;;3.45;1.70;;;19.40;99.90;;;;;;4967187;28;20051;-72
2022/12/05 12:47:56;;;;;;;4.25;1.70;;;19.00;99.90;;;;;;4968432;28;20092;-71
2022/12/05 12:50:28;;;;;;;5.45;2.33;;;19.00;99.90;;;;;;4971763;28;20108;-73
2022/12/05 12:53:39;;;;;;;2.88;1.70;;;19.00;99.90;;;;;;4955474;28;20074;-72
2022/12/05 12:56:44;;;;;;;3.33;2.00;;;18.90;99.90;;;;;;4965579;28;20066;-72
2022/12/05 12:59:46;;;;;;;2.63;1.77;;;18.70;99.90;;;;;;4970377;28;20228;-73
2022/12/05 13:02:39;;;;;;;2.85;2.13;;;18.70;99.90;;;;;;4969352;28;20065;-72
2022/12/05 13:05:14;;;;;;;4.18;2.35;;;18.60;99.90;;;;;;4956216;28;20119;-70
2022/12/05 13:07:47;;;;;;;3.93;1.93;;;18.60;99.90;;;;;;4971107;28;20042;-71
2022/12/05 13:10:20;;;;;;;2.70;1.65;;;18.60;99.90;;;;;;4973591;28;20043;-71
2022/12/05 13:12:50;;;;;;;4.40;2.33;;;18.50;99.90;;;;;;4954852;28;20062;-73
2022/12/05 13:15:29;;;;;;;3.78;1.83;;;18.40;99.90;;;;;;4969261;28;20069;-75
2022/12/05 13:17:57;;;;;;;2.90;2.15;;;18.50;99.90;;;;;;4969972;28;20066;-71
2022/12/05 13:20:29;;;;;;;4.28;1.80;;;18.50;99.90;;;;;;4971000;28;20074;-70
2022/12/05 13:22:58;;;;;;;2.72;1.38;;;18.70;99.90;;;;;;4953333;28;20075;-70
2022/12/05 13:25:31;;;;;;;3.60;1.88;;;18.80;99.90;;;;;;4952794;28;20141;-72
2022/12/05 13:28:02;;;;;;;2.50;1.85;;;19.00;99.90;;;;;;4965685;28;20089;-73
2022/12/05 13:30:31;;;;;;;5.20;2.13;;;19.10;99.90;;;;;;4954159;28;20047;-71
2022/12/05 13:33:07;;;;;;;4.13;1.65;;;19.20;99.90;;;;;;4954253;28;20046;-70
2022/12/05 13:44:11;;;;;;;5.30;2.10;;;19.30;99.90;;;;;;4982902;28;20548;-71